sensor_id;sensor_type;location;lat;lon;timestamp;pressure;altitude;pressure_sealevel;temperature;humidity
52291;BME280;39663;45.432;28.050;2023-05-29T00:00:10;101069.84;;;19.99;54.52
52291;BME280;39663;45.432;28.050;2023-05-29T00:00:41;101069.91;;;19.95;54.65
52291;BME280;39663;45.432;28.050;2023-05-29T00:01:13;101070.44;;;20.00;54.35
52291;BME280;39663;45.432;28.050;2023-05-29T00:01:45;101070.32;;;19.98;54.54
52291;BME280;39663;45.432;28.050;2023-05-29T00:02:16;101070.33;;;19.87;54.91
52291;BME280;39663;45.432;28.050;2023-05-29T00:02:48;101068.19;;;19.87;54.72
52291;BME280;39663;45.432;28.050;2023-05-29T00:03:20;101067.25;;;19.33;55.46
52291;BME280;39663;45.432;28.050;2023-05-29T00:03:52;101067.39;;;19.54;55.51
52291;BME280;39663;45.432;28.050;2023-05-29T00:04:23;101067.25;;;19.41;55.83
52291;BME280;39663;45.432;28.050;2023-05-29T00:04:55;101067.67;;;19.58;55.81
52291;BME280;39663;45.432;28.050;2023-05-29T00:05:26;101068.23;;;19.58;55.44
52291;BME280;39663;45.432;28.050;2023-05-29T00:05:58;101066.48;;;19.52;55.71
52291;BME280;39663;45.432;28.050;2023-05-29T00:06:29;101065.66;;;19.55;55.54
52291;BME280;39663;45.432;28.050;2023-05-29T00:07:02;101066.34;;;19.62;55.22
52291;BME280;39663;45.432;28.050;2023-05-29T00:07:33;101065.36;;;19.66;55.23
52291;BME280;39663;45.432;28.050;2023-05-29T00:08:05;101064.50;;;19.57;55.50
52291;BME280;39663;45.432;28.050;2023-05-29T00:08:36;101066.88;;;19.84;55.37
52291;BME280;39663;45.432;28.050;2023-05-29T00:09:08;101066.59;;;19.64;55.27
52291;BME280;39663;45.432;28.050;2023-05-29T00:09:39;101068.24;;;19.44;55.73
52291;BME280;39663;45.432;28.050;2023-05-29T00:10:12;101067.20;;;19.62;55.88
52291;BME280;39663;45.432;28.050;2023-05-29T00:10:43;101064.98;;;19.71;55.74
52291;BME280;39663;45.432;28.050;2023-05-29T00:11:15;101067.28;;;19.52;55.67
52291;BME280;39663;45.432;28.050;2023-05-29T00:11:46;101067.48;;;19.76;55.63
52291;BME280;39663;45.432;28.050;2023-05-29T00:12:17;101066.78;;;19.86;55.43
52291;BME280;39663;45.432;28.050;2023-05-29T00:12:49;101066.98;;;19.87;55.42
52291;BME280;39663;45.432;28.050;2023-05-29T00:13:20;101064.11;;;19.27;56.27
52291;BME280;39663;45.432;28.050;2023-05-29T00:13:52;101062.60;;;19.45;56.10
52291;BME280;39663;45.432;28.050;2023-05-29T00:14:23;101065.92;;;19.38;56.43
52291;BME280;39663;45.432;28.050;2023-05-29T00:14:55;101060.29;;;18.91;56.05
52291;BME280;39663;45.432;28.050;2023-05-29T00:15:26;101063.00;;;19.12;55.83
52291;BME280;39663;45.432;28.050;2023-05-29T00:15:58;101061.73;;;19.24;55.69
52291;BME280;39663;45.432;28.050;2023-05-29T00:16:29;101060.64;;;19.56;55.44
52291;BME280;39663;45.432;28.050;2023-05-29T00:17:01;101060.14;;;19.55;54.99
52291;BME280;39663;45.432;28.050;2023-05-29T00:17:32;101059.84;;;19.35;55.37
52291;BME280;39663;45.432;28.050;2023-05-29T00:18:04;101061.60;;;19.41;55.16
52291;BME280;39663;45.432;28.050;2023-05-29T00:18:36;101059.97;;;18.54;55.58
52291;BME280;39663;45.432;28.050;2023-05-29T00:19:08;101057.56;;;18.50;55.35
52291;BME280;39663;45.432;28.050;2023-05-29T00:19:39;101062.37;;;19.14;55.54
52291;BME280;39663;45.432;28.050;2023-05-29T00:20:12;101060.29;;;19.22;55.53
52291;BME280;39663;45.432;28.050;2023-05-29T00:20:43;101058.06;;;19.31;55.40
52291;BME280;39663;45.432;28.050;2023-05-29T00:21:14;101058.73;;;19.75;55.15
52291;BME280;39663;45.432;28.050;2023-05-29T00:21:46;101058.50;;;19.44;55.99
52291;BME280;39663;45.432;28.050;2023-05-29T00:22:18;101061.08;;;19.38;56.05
52291;BME280;39663;45.432;28.050;2023-05-29T00:22:49;101061.66;;;19.26;55.83
52291;BME280;39663;45.432;28.050;2023-05-29T00:23:21;101060.88;;;19.52;55.87
52291;BME280;39663;45.432;28.050;2023-05-29T00:23:53;101061.79;;;19.23;55.97
52291;BME280;39663;45.432;28.050;2023-05-29T00:24:24;101061.51;;;19.50;55.52
52291;BME280;39663;45.432;28.050;2023-05-29T00:24:56;101066.03;;;19.56;55.87
52291;BME280;39663;45.432;28.050;2023-05-29T00:25:27;101063.24;;;19.42;55.66
52291;BME280;39663;45.432;28.050;2023-05-29T00:25:59;101063.39;;;19.63;55.38
52291;BME280;39663;45.432;28.050;2023-05-29T00:26:31;101065.62;;;19.49;55.92
52291;BME280;39663;45.432;28.050;2023-05-29T00:27:02;101062.29;;;19.62;55.35
52291;BME280;39663;45.432;28.050;2023-05-29T00:27:34;101062.29;;;19.40;55.63
52291;BME280;39663;45.432;28.050;2023-05-29T00:28:07;101062.27;;;19.48;55.71
52291;BME280;39663;45.432;28.050;2023-05-29T00:28:38;101059.65;;;19.39;55.97
52291;BME280;39663;45.432;28.050;2023-05-29T00:29:10;101060.48;;;19.55;55.50
52291;BME280;39663;45.432;28.050;2023-05-29T00:29:41;101058.68;;;19.56;55.77
52291;BME280;39663;45.432;28.050;2023-05-29T00:30:12;101058.69;;;19.42;55.43
52291;BME280;39663;45.432;28.050;2023-05-29T00:30:44;101057.35;;;19.48;56.02
52291;BME280;39663;45.432;28.050;2023-05-29T00:31:15;101060.61;;;19.63;55.37
52291;BME280;39663;45.432;28.050;2023-05-29T00:31:47;101058.84;;;19.59;55.54
52291;BME280;39663;45.432;28.050;2023-05-29T00:32:18;101064.38;;;19.53;55.81
52291;BME280;39663;45.432;28.050;2023-05-29T00:32:50;101062.93;;;19.69;54.95
52291;BME280;39663;45.432;28.050;2023-05-29T00:33:21;101063.89;;;19.51;55.55
52291;BME280;39663;45.432;28.050;2023-05-29T00:33:52;101063.98;;;19.29;55.59
52291;BME280;39663;45.432;28.050;2023-05-29T00:34:24;101062.59;;;19.25;55.76
52291;BME280;39663;45.432;28.050;2023-05-29T00:34:55;101061.25;;;19.48;55.84
52291;BME280;39663;45.432;28.050;2023-05-29T00:35:27;101061.29;;;19.51;55.83
52291;BME280;39663;45.432;28.050;2023-05-29T00:35:58;101061.03;;;19.59;55.38
52291;BME280;39663;45.432;28.050;2023-05-29T00:36:30;101060.34;;;19.58;55.55
52291;BME280;39663;45.432;28.050;2023-05-29T00:37:01;101059.17;;;19.61;55.21
52291;BME280;39663;45.432;28.050;2023-05-29T00:37:33;101059.31;;;19.44;55.72
52291;BME280;39663;45.432;28.050;2023-05-29T00:38:04;101061.13;;;19.38;55.52
52291;BME280;39663;45.432;28.050;2023-05-29T00:38:36;101062.22;;;19.59;55.50
52291;BME280;39663;45.432;28.050;2023-05-29T00:39:07;101062.11;;;19.51;55.03
52291;BME280;39663;45.432;28.050;2023-05-29T00:39:39;101060.69;;;19.58;55.47
52291;BME280;39663;45.432;28.050;2023-05-29T00:40:11;101060.91;;;19.62;55.25
52291;BME280;39663;45.432;28.050;2023-05-29T00:40:42;101058.47;;;19.66;55.00
52291;BME280;39663;45.432;28.050;2023-05-29T00:41:15;101060.29;;;19.65;55.12
52291;BME280;39663;45.432;28.050;2023-05-29T00:41:46;101060.98;;;19.50;55.59
52291;BME280;39663;45.432;28.050;2023-05-29T00:42:18;101061.31;;;19.47;55.65
52291;BME280;39663;45.432;28.050;2023-05-29T00:42:50;101059.51;;;19.33;55.25
52291;BME280;39663;45.432;28.050;2023-05-29T00:43:21;101060.04;;;19.50;55.63
52291;BME280;39663;45.432;28.050;2023-05-29T00:43:52;101060.02;;;19.49;55.59
52291;BME280;39663;45.432;28.050;2023-05-29T00:44:24;101062.15;;;19.60;55.23
52291;BME280;39663;45.432;28.050;2023-05-29T00:44:55;101062.28;;;19.34;55.21
52291;BME280;39663;45.432;28.050;2023-05-29T00:45:27;101060.88;;;19.64;54.90
52291;BME280;39663;45.432;28.050;2023-05-29T00:45:58;101063.35;;;19.61;55.26
52291;BME280;39663;45.432;28.050;2023-05-29T00:46:32;101063.53;;;19.47;55.45
52291;BME280;39663;45.432;28.050;2023-05-29T00:47:04;101063.95;;;19.47;55.45
52291;BME280;39663;45.432;28.050;2023-05-29T00:47:37;101062.12;;;19.47;55.36
52291;BME280;39663;45.432;28.050;2023-05-29T00:48:08;101062.63;;;19.53;55.47
52291;BME280;39663;45.432;28.050;2023-05-29T00:48:41;101061.42;;;19.59;55.07
52291;BME280;39663;45.432;28.050;2023-05-29T00:49:13;101063.41;;;19.68;54.80
52291;BME280;39663;45.432;28.050;2023-05-29T00:49:45;101061.47;;;19.40;55.23
52291;BME280;39663;45.432;28.050;2023-05-29T00:50:17;101062.08;;;19.71;55.14
52291;BME280;39663;45.432;28.050;2023-05-29T00:50:49;101065.07;;;19.15;55.71
52291;BME280;39663;45.432;28.050;2023-05-29T00:51:20;101063.22;;;19.12;56.05
52291;BME280;39663;45.432;28.050;2023-05-29T00:51:54;101061.84;;;19.22;55.93
52291;BME280;39663;45.432;28.050;2023-05-29T00:52:26;101059.32;;;19.32;55.47
52291;BME280;39663;45.432;28.050;2023-05-29T00:52:59;101062.47;;;19.34;55.35
52291;BME280;39663;45.432;28.050;2023-05-29T00:53:30;101062.82;;;19.16;55.71
52291;BME280;39663;45.432;28.050;2023-05-29T00:54:04;101059.55;;;19.31;55.67
52291;BME280;39663;45.432;28.050;2023-05-29T00:54:36;101064.00;;;19.35;55.60
52291;BME280;39663;45.432;28.050;2023-05-29T00:55:09;101063.09;;;19.00;55.95
52291;BME280;39663;45.432;28.050;2023-05-29T00:55:40;101061.77;;;18.98;55.69
52291;BME280;39663;45.432;28.050;2023-05-29T00:56:12;101061.14;;;19.04;55.84
52291;BME280;39663;45.432;28.050;2023-05-29T00:56:44;101063.44;;;19.15;55.97
52291;BME280;39663;45.432;28.050;2023-05-29T00:57:17;101063.23;;;19.04;55.97
52291;BME280;39663;45.432;28.050;2023-05-29T00:57:49;101061.46;;;19.22;55.40
52291;BME280;39663;45.432;28.050;2023-05-29T00:58:21;101063.14;;;19.39;55.62
52291;BME280;39663;45.432;28.050;2023-05-29T00:58:53;101061.57;;;19.11;56.03
52291;BME280;39663;45.432;28.050;2023-05-29T00:59:26;101059.24;;;19.04;55.99
52291;BME280;39663;45.432;28.050;2023-05-29T01:00:00;101061.82;;;19.22;55.55
52291;BME280;39663;45.432;28.050;2023-05-29T01:00:33;101061.82;;;19.21;55.31
52291;BME280;39663;45.432;28.050;2023-05-29T01:01:05;101059.55;;;19.18;55.76
52291;BME280;39663;45.432;28.050;2023-05-29T01:01:37;101061.57;;;18.94;55.49
52291;BME280;39663;45.432;28.050;2023-05-29T01:02:09;101063.24;;;19.07;55.67
52291;BME280;39663;45.432;28.050;2023-05-29T01:02:55;101059.13;;;19.01;56.09
52291;BME280;39663;45.432;28.050;2023-05-29T01:03:28;101060.76;;;19.06;55.39
52291;BME280;39663;45.432;28.050;2023-05-29T01:03:59;101061.62;;;19.10;55.26
52291;BME280;39663;45.432;28.050;2023-05-29T01:04:32;101060.10;;;19.18;54.96
52291;BME280;39663;45.432;28.050;2023-05-29T01:05:04;101060.47;;;18.80;55.73
52291;BME280;39663;45.432;28.050;2023-05-29T01:05:35;101060.00;;;18.92;55.83
52291;BME280;39663;45.432;28.050;2023-05-29T01:06:07;101060.60;;;18.94;55.93
52291;BME280;39663;45.432;28.050;2023-05-29T01:06:39;101059.42;;;19.07;55.79
52291;BME280;39663;45.432;28.050;2023-05-29T01:07:10;101056.81;;;19.15;55.72
52291;BME280;39663;45.432;28.050;2023-05-29T01:07:42;101059.85;;;19.19;55.32
52291;BME280;39663;45.432;28.050;2023-05-29T01:08:13;101058.40;;;19.23;55.09
52291;BME280;39663;45.432;28.050;2023-05-29T01:08:45;101054.97;;;19.15;55.22
52291;BME280;39663;45.432;28.050;2023-05-29T01:09:16;101055.19;;;19.34;55.05
52291;BME280;39663;45.432;28.050;2023-05-29T01:09:59;101053.64;;;19.38;54.65
52291;BME280;39663;45.432;28.050;2023-05-29T01:10:31;101052.29;;;19.36;55.00
52291;BME280;39663;45.432;28.050;2023-05-29T01:11:11;101052.53;;;19.42;54.91
52291;BME280;39663;45.432;28.050;2023-05-29T01:11:49;101051.14;;;19.35;54.70
52291;BME280;39663;45.432;28.050;2023-05-29T01:12:31;101051.15;;;19.45;54.44
52291;BME280;39663;45.432;28.050;2023-05-29T01:13:11;101051.60;;;19.46;54.04
52291;BME280;39663;45.432;28.050;2023-05-29T01:13:45;101051.99;;;19.61;53.79
52291;BME280;39663;45.432;28.050;2023-05-29T01:14:22;101051.37;;;19.33;53.63
52291;BME280;39663;45.432;28.050;2023-05-29T01:15:11;101049.89;;;19.22;54.41
52291;BME280;39663;45.432;28.050;2023-05-29T01:15:52;101048.41;;;19.38;54.61
52291;BME280;39663;45.432;28.050;2023-05-29T01:16:33;101047.41;;;19.02;54.33
52291;BME280;39663;45.432;28.050;2023-05-29T01:17:12;101044.51;;;19.07;54.80
52291;BME280;39663;45.432;28.050;2023-05-29T01:17:58;101045.12;;;19.35;54.28
52291;BME280;39663;45.432;28.050;2023-05-29T01:18:41;101044.14;;;19.06;54.26
52291;BME280;39663;45.432;28.050;2023-05-29T01:19:23;101042.99;;;19.22;53.99
52291;BME280;39663;45.432;28.050;2023-05-29T01:20:08;101042.44;;;18.99;54.68
52291;BME280;39663;45.432;28.050;2023-05-29T01:20:50;101039.82;;;19.19;53.98
52291;BME280;39663;45.432;28.050;2023-05-29T01:21:34;101042.56;;;19.08;54.73
52291;BME280;39663;45.432;28.050;2023-05-29T01:22:12;101040.30;;;19.00;54.04
52291;BME280;39663;45.432;28.050;2023-05-29T01:23:06;101038.53;;;18.98;53.91
52291;BME280;39663;45.432;28.050;2023-05-29T01:23:52;101039.54;;;19.15;54.02
52291;BME280;39663;45.432;28.050;2023-05-29T01:24:29;101041.03;;;19.14;54.59
52291;BME280;39663;45.432;28.050;2023-05-29T01:25:11;101037.17;;;19.24;54.20
52291;BME280;39663;45.432;28.050;2023-05-29T01:25:58;101039.95;;;19.43;53.45
52291;BME280;39663;45.432;28.050;2023-05-29T01:26:41;101040.13;;;19.38;53.56
52291;BME280;39663;45.432;28.050;2023-05-29T01:27:18;101041.00;;;19.13;54.12
52291;BME280;39663;45.432;28.050;2023-05-29T01:27:51;101043.07;;;19.33;54.23
52291;BME280;39663;45.432;28.050;2023-05-29T01:28:26;101044.70;;;19.36;53.63
52291;BME280;39663;45.432;28.050;2023-05-29T01:29:00;101045.85;;;19.42;53.45
52291;BME280;39663;45.432;28.050;2023-05-29T01:29:34;101045.08;;;19.40;53.78
52291;BME280;39663;45.432;28.050;2023-05-29T01:30:10;101042.26;;;19.15;53.44
52291;BME280;39663;45.432;28.050;2023-05-29T01:30:43;101044.35;;;19.10;53.34
52291;BME280;39663;45.432;28.050;2023-05-29T01:31:17;101045.74;;;19.30;54.05
52291;BME280;39663;45.432;28.050;2023-05-29T01:31:50;101045.79;;;19.37;53.92
52291;BME280;39663;45.432;28.050;2023-05-29T01:32:23;101044.73;;;19.43;53.36
52291;BME280;39663;45.432;28.050;2023-05-29T01:32:55;101044.82;;;19.56;52.55
52291;BME280;39663;45.432;28.050;2023-05-29T01:33:27;101044.85;;;19.37;52.78
52291;BME280;39663;45.432;28.050;2023-05-29T01:33:59;101044.77;;;19.34;52.51
52291;BME280;39663;45.432;28.050;2023-05-29T01:34:31;101043.59;;;19.27;53.62
52291;BME280;39663;45.432;28.050;2023-05-29T01:35:03;101044.49;;;19.34;53.35
52291;BME280;39663;45.432;28.050;2023-05-29T01:35:35;101040.65;;;19.34;53.11
52291;BME280;39663;45.432;28.050;2023-05-29T01:36:07;101042.70;;;19.14;52.88
52291;BME280;39663;45.432;28.050;2023-05-29T01:36:38;101045.06;;;19.26;53.64
52291;BME280;39663;45.432;28.050;2023-05-29T01:37:10;101042.55;;;19.33;53.26
52291;BME280;39663;45.432;28.050;2023-05-29T01:37:41;101041.90;;;19.40;53.02
52291;BME280;39663;45.432;28.050;2023-05-29T01:38:13;101038.37;;;19.26;53.60
52291;BME280;39663;45.432;28.050;2023-05-29T01:38:44;101036.49;;;19.37;53.35
52291;BME280;39663;45.432;28.050;2023-05-29T01:39:16;101040.77;;;19.20;53.31
52291;BME280;39663;45.432;28.050;2023-05-29T01:39:48;101039.56;;;19.10;53.28
52291;BME280;39663;45.432;28.050;2023-05-29T01:40:19;101041.61;;;19.28;52.43
52291;BME280;39663;45.432;28.050;2023-05-29T01:40:51;101039.87;;;19.52;52.22
52291;BME280;39663;45.432;28.050;2023-05-29T01:41:23;101040.89;;;19.31;52.17
52291;BME280;39663;45.432;28.050;2023-05-29T01:41:56;101042.95;;;18.67;52.81
52291;BME280;39663;45.432;28.050;2023-05-29T01:42:28;101044.82;;;19.12;53.22
52291;BME280;39663;45.432;28.050;2023-05-29T01:42:59;101045.34;;;19.01;53.33
52291;BME280;39663;45.432;28.050;2023-05-29T01:43:31;101046.08;;;19.23;52.38
52291;BME280;39663;45.432;28.050;2023-05-29T01:44:05;101046.81;;;19.14;53.40
52291;BME280;39663;45.432;28.050;2023-05-29T01:44:38;101047.10;;;19.24;52.57
52291;BME280;39663;45.432;28.050;2023-05-29T01:45:10;101047.59;;;19.23;52.93
52291;BME280;39663;45.432;28.050;2023-05-29T01:45:43;101048.04;;;19.14;52.99
52291;BME280;39663;45.432;28.050;2023-05-29T01:46:16;101048.34;;;19.24;52.99
52291;BME280;39663;45.432;28.050;2023-05-29T01:46:49;101046.94;;;19.41;52.73
52291;BME280;39663;45.432;28.050;2023-05-29T01:47:21;101048.21;;;18.99;52.38
52291;BME280;39663;45.432;28.050;2023-05-29T01:47:53;101050.43;;;19.28;51.61
52291;BME280;39663;45.432;28.050;2023-05-29T01:48:27;101051.30;;;19.19;52.54
52291;BME280;39663;45.432;28.050;2023-05-29T01:48:58;101049.93;;;19.38;51.65
52291;BME280;39663;45.432;28.050;2023-05-29T01:49:31;101050.28;;;19.47;51.94
52291;BME280;39663;45.432;28.050;2023-05-29T01:50:03;101050.33;;;19.16;51.67
52291;BME280;39663;45.432;28.050;2023-05-29T01:50:36;101050.37;;;19.33;51.85
52291;BME280;39663;45.432;28.050;2023-05-29T01:51:09;101050.40;;;19.31;51.75
52291;BME280;39663;45.432;28.050;2023-05-29T01:51:41;101051.75;;;19.19;52.28
52291;BME280;39663;45.432;28.050;2023-05-29T01:52:12;101051.38;;;19.17;51.43
52291;BME280;39663;45.432;28.050;2023-05-29T01:52:44;101050.60;;;19.20;52.58
52291;BME280;39663;45.432;28.050;2023-05-29T01:53:16;101051.48;;;19.02;52.35
52291;BME280;39663;45.432;28.050;2023-05-29T01:53:47;101050.00;;;19.27;51.16
52291;BME280;39663;45.432;28.050;2023-05-29T01:54:19;101050.56;;;19.19;51.73
52291;BME280;39663;45.432;28.050;2023-05-29T01:54:50;101050.84;;;18.92;52.65
52291;BME280;39663;45.432;28.050;2023-05-29T01:55:21;101050.76;;;19.18;51.83
52291;BME280;39663;45.432;28.050;2023-05-29T01:55:53;101055.69;;;19.13;52.15
52291;BME280;39663;45.432;28.050;2023-05-29T01:56:25;101052.12;;;19.13;52.13
52291;BME280;39663;45.432;28.050;2023-05-29T01:56:57;101050.66;;;19.05;52.15
52291;BME280;39663;45.432;28.050;2023-05-29T01:57:29;101051.90;;;19.08;52.55
52291;BME280;39663;45.432;28.050;2023-05-29T01:58:02;101051.19;;;19.08;51.81
52291;BME280;39663;45.432;28.050;2023-05-29T01:58:34;101048.49;;;19.14;51.53
52291;BME280;39663;45.432;28.050;2023-05-29T01:59:06;101050.77;;;19.03;51.78
52291;BME280;39663;45.432;28.050;2023-05-29T01:59:39;101050.94;;;18.88;51.82
52291;BME280;39663;45.432;28.050;2023-05-29T02:00:11;101051.64;;;19.07;51.73
52291;BME280;39663;45.432;28.050;2023-05-29T02:00:43;101050.49;;;18.93;51.90
52291;BME280;39663;45.432;28.050;2023-05-29T02:01:14;101053.27;;;19.09;52.75
52291;BME280;39663;45.432;28.050;2023-05-29T02:01:47;101055.68;;;19.17;51.96
52291;BME280;39663;45.432;28.050;2023-05-29T02:02:21;101054.53;;;18.97;52.27
52291;BME280;39663;45.432;28.050;2023-05-29T02:02:53;101051.52;;;18.79;52.10
52291;BME280;39663;45.432;28.050;2023-05-29T02:03:24;101056.02;;;19.02;52.47
52291;BME280;39663;45.432;28.050;2023-05-29T02:03:56;101054.07;;;19.12;51.16
52291;BME280;39663;45.432;28.050;2023-05-29T02:04:27;101056.26;;;19.06;52.44
52291;BME280;39663;45.432;28.050;2023-05-29T02:04:58;101053.95;;;18.94;51.95
52291;BME280;39663;45.432;28.050;2023-05-29T02:05:30;101053.78;;;19.14;51.80
52291;BME280;39663;45.432;28.050;2023-05-29T02:06:01;101054.32;;;19.02;52.16
52291;BME280;39663;45.432;28.050;2023-05-29T02:06:33;101056.61;;;19.09;50.95
52291;BME280;39663;45.432;28.050;2023-05-29T02:07:04;101055.31;;;19.24;51.02
52291;BME280;39663;45.432;28.050;2023-05-29T02:07:36;101056.37;;;19.27;51.09
52291;BME280;39663;45.432;28.050;2023-05-29T02:08:07;101053.08;;;18.96;50.77
52291;BME280;39663;45.432;28.050;2023-05-29T02:08:39;101055.87;;;19.14;51.77
52291;BME280;39663;45.432;28.050;2023-05-29T02:09:10;101056.75;;;19.25;51.96
52291;BME280;39663;45.432;28.050;2023-05-29T02:09:41;101054.66;;;19.16;50.09
52291;BME280;39663;45.432;28.050;2023-05-29T02:10:13;101057.95;;;19.27;50.51
52291;BME280;39663;45.432;28.050;2023-05-29T02:10:45;101057.16;;;19.30;51.68
52291;BME280;39663;45.432;28.050;2023-05-29T02:11:16;101057.22;;;19.19;51.22
52291;BME280;39663;45.432;28.050;2023-05-29T02:11:48;101055.62;;;19.26;51.12
52291;BME280;39663;45.432;28.050;2023-05-29T02:12:19;101053.22;;;19.26;50.03
52291;BME280;39663;45.432;28.050;2023-05-29T02:12:51;101054.92;;;19.27;49.83
52291;BME280;39663;45.432;28.050;2023-05-29T02:13:22;101056.26;;;18.99;51.13
52291;BME280;39663;45.432;28.050;2023-05-29T02:13:53;101054.79;;;18.88;50.52
52291;BME280;39663;45.432;28.050;2023-05-29T02:14:25;101053.30;;;19.10;50.58
52291;BME280;39663;45.432;28.050;2023-05-29T02:14:56;101053.07;;;19.13;50.37
52291;BME280;39663;45.432;28.050;2023-05-29T02:15:28;101054.62;;;18.86;50.63
52291;BME280;39663;45.432;28.050;2023-05-29T02:15:59;101054.81;;;18.93;50.81
52291;BME280;39663;45.432;28.050;2023-05-29T02:16:31;101054.80;;;18.78;50.21
52291;BME280;39663;45.432;28.050;2023-05-29T02:17:02;101052.54;;;19.10;49.78
52291;BME280;39663;45.432;28.050;2023-05-29T02:17:34;101052.27;;;18.84;50.00
52291;BME280;39663;45.432;28.050;2023-05-29T02:18:07;101053.69;;;18.66;51.04
52291;BME280;39663;45.432;28.050;2023-05-29T02:18:39;101055.87;;;18.74;51.19
52291;BME280;39663;45.432;28.050;2023-05-29T02:19:10;101056.01;;;18.61;51.46
52291;BME280;39663;45.432;28.050;2023-05-29T02:19:42;101056.42;;;18.76;51.31
52291;BME280;39663;45.432;28.050;2023-05-29T02:20:14;101054.16;;;18.74;49.87
52291;BME280;39663;45.432;28.050;2023-05-29T02:20:46;101056.33;;;19.04;50.17
52291;BME280;39663;45.432;28.050;2023-05-29T02:21:17;101056.20;;;18.50;50.91
52291;BME280;39663;45.432;28.050;2023-05-29T02:21:49;101054.93;;;18.74;51.39
52291;BME280;39663;45.432;28.050;2023-05-29T02:22:20;101057.34;;;19.02;51.08
52291;BME280;39663;45.432;28.050;2023-05-29T02:22:52;101058.29;;;19.09;50.99
52291;BME280;39663;45.432;28.050;2023-05-29T02:23:23;101054.10;;;19.12;50.12
52291;BME280;39663;45.432;28.050;2023-05-29T02:23:55;101051.68;;;19.11;51.01
52291;BME280;39663;45.432;28.050;2023-05-29T02:24:26;101054.17;;;18.78;50.96
52291;BME280;39663;45.432;28.050;2023-05-29T02:24:57;101053.88;;;19.23;50.83
52291;BME280;39663;45.432;28.050;2023-05-29T02:25:29;101053.09;;;19.09;50.53
52291;BME280;39663;45.432;28.050;2023-05-29T02:26:00;101052.59;;;19.16;50.35
52291;BME280;39663;45.432;28.050;2023-05-29T02:26:32;101052.66;;;19.34;50.41
52291;BME280;39663;45.432;28.050;2023-05-29T02:27:04;101054.69;;;19.33;50.37
52291;BME280;39663;45.432;28.050;2023-05-29T02:27:35;101053.60;;;19.26;49.15
52291;BME280;39663;45.432;28.050;2023-05-29T02:28:07;101053.95;;;19.27;50.30
52291;BME280;39663;45.432;28.050;2023-05-29T02:28:39;101055.47;;;19.16;49.09
52291;BME280;39663;45.432;28.050;2023-05-29T02:29:10;101053.54;;;19.19;48.52
52291;BME280;39663;45.432;28.050;2023-05-29T02:29:42;101057.57;;;19.05;49.66
52291;BME280;39663;45.432;28.050;2023-05-29T02:30:13;101055.33;;;19.09;50.14
52291;BME280;39663;45.432;28.050;2023-05-29T02:30:45;101060.30;;;19.21;49.43
52291;BME280;39663;45.432;28.050;2023-05-29T02:31:16;101056.09;;;18.52;50.37
52291;BME280;39663;45.432;28.050;2023-05-29T02:31:48;101058.56;;;18.88;50.76
52291;BME280;39663;45.432;28.050;2023-05-29T02:32:19;101058.63;;;18.87;50.36
52291;BME280;39663;45.432;28.050;2023-05-29T02:32:51;101059.27;;;19.15;49.76
52291;BME280;39663;45.432;28.050;2023-05-29T02:33:22;101058.97;;;18.99;49.27
52291;BME280;39663;45.432;28.050;2023-05-29T02:33:53;101057.44;;;18.99;48.73
52291;BME280;39663;45.432;28.050;2023-05-29T02:34:25;101056.96;;;18.91;50.18
52291;BME280;39663;45.432;28.050;2023-05-29T02:34:57;101059.19;;;18.97;49.45
52291;BME280;39663;45.432;28.050;2023-05-29T02:35:29;101057.85;;;19.06;49.23
52291;BME280;39663;45.432;28.050;2023-05-29T02:36:01;101059.62;;;19.03;49.22
52291;BME280;39663;45.432;28.050;2023-05-29T02:36:32;101059.76;;;19.09;48.65
52291;BME280;39663;45.432;28.050;2023-05-29T02:37:04;101059.36;;;19.00;49.00
52291;BME280;39663;45.432;28.050;2023-05-29T02:37:35;101058.32;;;19.00;49.29
52291;BME280;39663;45.432;28.050;2023-05-29T02:38:07;101061.13;;;18.66;49.29
52291;BME280;39663;45.432;28.050;2023-05-29T02:38:39;101059.74;;;18.86;50.66
52291;BME280;39663;45.432;28.050;2023-05-29T02:39:11;101062.06;;;18.91;50.63
52291;BME280;39663;45.432;28.050;2023-05-29T02:39:42;101062.86;;;18.99;49.01
52291;BME280;39663;45.432;28.050;2023-05-29T02:40:13;101059.76;;;18.93;49.14
52291;BME280;39663;45.432;28.050;2023-05-29T02:40:50;101059.27;;;18.58;49.17
52291;BME280;39663;45.432;28.050;2023-05-29T02:41:21;101060.64;;;18.65;49.78
52291;BME280;39663;45.432;28.050;2023-05-29T02:41:53;101061.02;;;18.87;49.34
52291;BME280;39663;45.432;28.050;2023-05-29T02:42:25;101058.15;;;18.55;49.42
52291;BME280;39663;45.432;28.050;2023-05-29T02:42:56;101060.17;;;18.59;49.95
52291;BME280;39663;45.432;28.050;2023-05-29T02:43:27;101057.60;;;18.61;49.30
52291;BME280;39663;45.432;28.050;2023-05-29T02:43:59;101059.19;;;18.48;49.85
52291;BME280;39663;45.432;28.050;2023-05-29T02:44:30;101058.22;;;18.58;50.57
52291;BME280;39663;45.432;28.050;2023-05-29T02:45:02;101061.23;;;18.46;49.85
52291;BME280;39663;45.432;28.050;2023-05-29T02:45:34;101061.16;;;18.61;50.50
52291;BME280;39663;45.432;28.050;2023-05-29T02:46:05;101060.19;;;18.57;50.57
52291;BME280;39663;45.432;28.050;2023-05-29T02:46:36;101064.42;;;18.65;50.37
52291;BME280;39663;45.432;28.050;2023-05-29T02:47:08;101060.84;;;18.95;50.11
52291;BME280;39663;45.432;28.050;2023-05-29T02:47:39;101062.06;;;18.98;50.11
52291;BME280;39663;45.432;28.050;2023-05-29T02:48:11;101061.32;;;18.93;48.80
52291;BME280;39663;45.432;28.050;2023-05-29T02:48:42;101060.70;;;18.75;49.95